createdAt,value
2018-12-22T00:02:27.020Z,11.80
2018-12-22T00:04:54.523Z,11.76
2018-12-22T00:07:22.049Z,11.62
2018-12-22T00:09:49.568Z,11.54
2018-12-22T00:12:17.231Z,11.58
2018-12-22T00:14:44.736Z,11.58
2018-12-22T00:17:12.231Z,11.58
2018-12-22T00:19:39.791Z,11.55
2018-12-22T00:22:07.292Z,11.47
2018-12-22T00:24:34.839Z,11.52
2018-12-22T00:27:02.352Z,11.46
2018-12-22T00:29:29.879Z,11.48
2018-12-22T00:31:58.107Z,11.75
2018-12-22T00:34:25.627Z,11.66
2018-12-22T00:36:53.163Z,11.75
2018-12-22T00:39:21.164Z,11.66
2018-12-22T00:41:48.667Z,11.74
2018-12-22T00:44:16.195Z,11.71
2018-12-22T00:46:43.795Z,11.78
2018-12-22T00:49:11.424Z,11.78
2018-12-22T00:51:38.923Z,11.78
2018-12-22T00:54:06.415Z,11.82
2018-12-22T00:56:33.940Z,11.95
2018-12-22T00:59:01.451Z,12.04
2018-12-22T01:01:29.292Z,11.92
2018-12-22T01:03:56.792Z,11.93
2018-12-22T01:06:24.296Z,11.89
2018-12-22T01:08:51.819Z,11.78
2018-12-22T01:11:19.427Z,11.92
2018-12-22T01:13:46.958Z,11.96
2018-12-22T01:16:14.475Z,11.85
2018-12-22T01:18:41.985Z,11.83
2018-12-22T01:21:09.516Z,11.90
2018-12-22T01:23:37.008Z,12.02
2018-12-22T01:26:04.691Z,11.96
2018-12-22T01:28:39.353Z,11.97
2018-12-22T01:31:01.742Z,12.09
2018-12-22T01:33:29.273Z,12.00
2018-12-22T01:35:56.797Z,11.95
2018-12-22T01:38:24.435Z,11.90
2018-12-22T01:40:51.928Z,11.89
2018-12-22T01:43:19.443Z,11.94
2018-12-22T01:45:46.971Z,11.83
2018-12-22T01:48:14.464Z,12.04
2018-12-22T01:50:42.128Z,11.74
2018-12-22T01:53:09.623Z,11.81
2018-12-22T01:55:37.155Z,11.88
2018-12-22T01:58:04.679Z,11.84
2018-12-22T02:00:32.291Z,11.86
2018-12-22T02:02:59.861Z,11.97
2018-12-22T02:05:27.355Z,12.05
2018-12-22T02:07:54.864Z,11.97
2018-12-22T02:10:22.387Z,12.10
2018-12-22T02:12:49.888Z,12.11
2018-12-22T02:15:17.415Z,12.14
2018-12-22T02:17:44.924Z,12.19
2018-12-22T02:20:12.460Z,12.15
2018-12-22T02:22:39.987Z,12.29
2018-12-22T02:25:07.488Z,12.30
2018-12-22T02:27:35.021Z,12.30
2018-12-22T02:30:02.527Z,12.28
2018-12-22T02:32:30.059Z,12.25
2018-12-22T02:34:57.609Z,12.35
2018-12-22T02:37:25.135Z,12.30
2018-12-22T02:39:52.633Z,12.32
2018-12-22T02:42:20.164Z,12.38
2018-12-22T02:44:47.663Z,12.32
2018-12-22T02:47:15.159Z,12.39
2018-12-22T02:49:42.783Z,12.36
2018-12-22T02:52:10.300Z,12.29
2018-12-22T02:54:37.987Z,12.34
2018-12-22T02:57:05.483Z,12.26
2018-12-22T02:59:32.983Z,12.42
2018-12-22T03:02:00.524Z,12.40
2018-12-22T03:04:28.029Z,12.22
2018-12-22T03:06:55.569Z,12.16
2018-12-22T03:09:23.065Z,12.34
2018-12-22T03:11:50.559Z,12.23
2018-12-22T03:14:18.093Z,12.10
2018-12-22T03:16:45.620Z,12.09
2018-12-22T03:19:13.185Z,12.08
2018-12-22T03:21:40.683Z,12.03
2018-12-22T03:24:08.180Z,12.01
2018-12-22T03:26:35.733Z,12.02
2018-12-22T03:29:03.393Z,12.15
2018-12-22T03:31:30.941Z,12.14
2018-12-22T03:33:58.444Z,12.06
2018-12-22T03:36:25.943Z,12.13
2018-12-22T03:38:53.470Z,12.07
2018-12-22T03:41:20.979Z,12.08
2018-12-22T03:43:48.511Z,11.99
2018-12-22T03:46:16.022Z,12.08
2018-12-22T03:48:43.535Z,12.11
2018-12-22T03:51:11.061Z,12.08
2018-12-22T03:53:38.561Z,12.00
2018-12-22T03:56:06.088Z,12.09
2018-12-22T03:58:33.586Z,11.95
2018-12-22T04:01:01.173Z,12.03
2018-12-22T04:03:28.679Z,12.01
2018-12-22T04:05:56.175Z,12.07
2018-12-22T04:08:23.728Z,12.10
2018-12-22T04:10:51.325Z,12.00
2018-12-22T04:13:18.851Z,12.05
2018-12-22T04:15:46.349Z,12.10
2018-12-22T04:18:13.895Z,12.05
2018-12-22T04:20:41.396Z,12.15
2018-12-22T04:23:08.895Z,12.11
2018-12-22T04:25:36.428Z,12.17
2018-12-22T04:28:03.925Z,12.12
2018-12-22T04:30:31.460Z,12.14
2018-12-22T04:32:58.962Z,12.15
2018-12-22T04:35:26.483Z,12.25
2018-12-22T04:37:53.983Z,12.21
2018-12-22T04:40:21.809Z,12.22
2018-12-22T04:42:49.421Z,12.33
2018-12-22T04:45:16.919Z,12.34
2018-12-22T04:47:44.445Z,12.31
2018-12-22T04:50:11.970Z,12.39
2018-12-22T04:52:39.732Z,12.30
2018-12-22T04:55:07.232Z,12.39
2018-12-22T04:57:34.727Z,12.46
2018-12-22T05:00:02.263Z,12.39
2018-12-22T05:02:29.784Z,12.44
2018-12-22T05:04:57.495Z,12.41
2018-12-22T05:07:25.088Z,12.41
2018-12-22T05:09:52.858Z,12.37
2018-12-22T05:12:20.383Z,12.28
2018-12-22T05:14:47.884Z,12.32
2018-12-22T05:17:15.444Z,12.40
2018-12-22T05:19:42.952Z,12.41
2018-12-22T05:22:10.450Z,12.33
2018-12-22T05:24:38.580Z,12.39
2018-12-22T05:27:06.076Z,12.43
2018-12-22T05:29:33.916Z,12.36
2018-12-22T05:32:01.415Z,12.36
2018-12-22T05:34:28.908Z,12.36
2018-12-22T05:36:56.437Z,12.53
2018-12-22T05:39:23.945Z,12.35
2018-12-22T05:41:51.615Z,12.37
2018-12-22T05:44:19.111Z,12.47
2018-12-22T05:46:46.612Z,12.48
2018-12-22T05:49:14.164Z,12.48
2018-12-22T05:51:41.671Z,12.37
2018-12-22T05:54:09.214Z,12.28
2018-12-22T05:56:36.728Z,12.38
2018-12-22T05:59:04.719Z,12.32
2018-12-22T06:01:32.247Z,12.36
2018-12-22T06:03:59.744Z,12.16
2018-12-22T06:06:27.288Z,12.27
2018-12-22T06:08:54.787Z,12.18
2018-12-22T06:11:22.295Z,12.20
2018-12-22T06:13:49.815Z,12.14
2018-12-22T06:16:17.331Z,12.25
2018-12-22T06:18:44.867Z,12.20
2018-12-22T06:21:12.364Z,12.22
2018-12-22T06:23:39.880Z,12.02
2018-12-22T06:26:07.411Z,11.94
2018-12-22T06:28:34.908Z,12.07
2018-12-22T06:31:02.709Z,11.88
2018-12-22T06:33:30.235Z,11.94
2018-12-22T06:35:57.731Z,11.96
2018-12-22T06:38:25.267Z,12.01
2018-12-22T06:40:52.781Z,11.98
2018-12-22T06:43:20.329Z,12.12
2018-12-22T06:45:47.824Z,12.00
2018-12-22T06:48:15.419Z,12.00
2018-12-22T06:50:42.951Z,12.14
2018-12-22T06:53:10.464Z,11.96
2018-12-22T06:55:38.117Z,12.02
2018-12-22T06:58:05.616Z,11.99
2018-12-22T07:00:33.207Z,12.03
2018-12-22T07:03:00.739Z,12.05
2018-12-22T07:05:28.347Z,12.02
2018-12-22T07:07:55.972Z,12.00
2018-12-22T07:10:25.478Z,11.95
2018-12-22T07:12:53.017Z,11.82
2018-12-22T07:15:20.563Z,11.84
2018-12-22T07:17:48.059Z,11.75
2018-12-22T07:20:15.616Z,11.72
2018-12-22T07:22:43.112Z,11.70
2018-12-22T07:25:10.636Z,11.81
2018-12-22T07:27:38.184Z,11.84
2018-12-22T07:30:08.488Z,11.84
2018-12-22T07:32:36.023Z,11.83
2018-12-22T07:35:05.023Z,11.67
2018-12-22T07:37:32.524Z,11.76
2018-12-22T07:40:00.060Z,11.65
2018-12-22T07:42:27.783Z,11.65
2018-12-22T07:44:55.328Z,11.67
2018-12-22T07:47:22.850Z,11.70
2018-12-22T07:49:50.352Z,11.74
2018-12-22T07:52:17.879Z,11.82
2018-12-22T07:54:45.379Z,11.74
2018-12-22T07:57:12.916Z,11.74
2018-12-22T07:59:40.411Z,11.88
2018-12-22T08:02:07.911Z,11.72
2018-12-22T08:04:35.439Z,11.86
2018-12-22T08:07:02.942Z,11.86
2018-12-22T08:09:30.616Z,11.95
2018-12-22T08:11:58.115Z,11.92
2018-12-22T08:14:25.608Z,11.85
2018-12-22T08:16:53.137Z,11.90
2018-12-22T08:19:20.633Z,12.01
2018-12-22T08:21:48.412Z,11.96
2018-12-22T08:24:15.913Z,11.95
2018-12-22T08:26:43.412Z,11.95
2018-12-22T08:29:10.942Z,11.97
2018-12-22T08:31:38.440Z,12.03
2018-12-22T08:34:06.515Z,11.99
2018-12-22T08:36:34.011Z,12.00
2018-12-22T08:39:01.511Z,12.05
2018-12-22T08:41:29.055Z,12.08
2018-12-22T08:43:56.640Z,12.16
2018-12-22T08:46:24.163Z,12.18
2018-12-22T08:48:51.679Z,12.16
2018-12-22T08:51:19.203Z,12.14
2018-12-22T08:53:46.751Z,12.11
2018-12-22T08:56:14.251Z,12.07
2018-12-22T08:58:41.834Z,12.25
2018-12-22T09:01:09.404Z,12.24
2018-12-22T09:03:36.939Z,12.16
2018-12-22T09:06:04.439Z,12.18
2018-12-22T09:08:31.972Z,12.19
2018-12-22T09:10:59.479Z,12.22
2018-12-22T09:13:27.015Z,12.22
2018-12-22T09:15:54.532Z,12.39
2018-12-22T09:18:22.027Z,12.33
2018-12-22T09:20:49.567Z,12.32
2018-12-22T09:23:17.065Z,12.38
2018-12-22T09:25:44.613Z,12.40
2018-12-22T09:28:12.117Z,12.24
2018-12-22T09:30:39.620Z,12.20
2018-12-22T09:33:07.152Z,12.19
2018-12-22T09:35:34.666Z,12.17
2018-12-22T09:38:02.348Z,12.18
2018-12-22T09:40:29.853Z,12.19
2018-12-22T09:42:57.355Z,12.18
2018-12-22T09:45:24.903Z,12.25
2018-12-22T09:47:52.403Z,12.34
2018-12-22T09:50:19.984Z,12.37
2018-12-22T09:52:47.491Z,12.27
2018-12-22T09:55:14.991Z,12.33
2018-12-22T09:57:42.530Z,12.32
2018-12-22T10:00:11.443Z,12.44
2018-12-22T10:02:39.279Z,12.49
2018-12-22T10:05:08.378Z,12.53
2018-12-22T10:07:35.895Z,12.53
2018-12-22T10:10:06.225Z,12.60
2018-12-22T10:12:33.728Z,12.75
2018-12-22T10:15:01.295Z,12.83
2018-12-22T10:17:28.795Z,13.06
2018-12-22T10:19:56.356Z,13.01
2018-12-22T10:22:23.891Z,12.96
2018-12-22T10:24:51.390Z,12.97
2018-12-22T10:27:18.957Z,12.91
2018-12-22T10:29:46.484Z,12.92
2018-12-22T10:32:14.191Z,12.88
2018-12-22T10:34:41.700Z,12.84
2018-12-22T10:37:09.194Z,12.87
2018-12-22T10:39:36.720Z,12.79
2018-12-22T10:42:04.235Z,13.00
2018-12-22T10:44:31.774Z,12.90
2018-12-22T10:46:59.295Z,12.92
2018-12-22T10:49:26.907Z,12.82
2018-12-22T10:51:54.412Z,12.77
2018-12-22T10:54:21.931Z,12.75
2018-12-22T10:56:49.459Z,12.71
2018-12-22T10:59:16.959Z,12.68
2018-12-22T11:01:44.515Z,12.75
2018-12-22T11:04:12.040Z,12.71
2018-12-22T11:06:39.584Z,12.68
2018-12-22T11:09:07.211Z,12.67
2018-12-22T11:11:34.715Z,12.61
2018-12-22T11:14:02.280Z,12.68
2018-12-22T11:16:29.784Z,12.63
2018-12-22T11:18:57.320Z,12.66
2018-12-22T11:21:25.539Z,12.63
2018-12-22T11:23:53.120Z,12.65
2018-12-22T11:26:20.628Z,12.60
2018-12-22T11:28:48.143Z,12.55
2018-12-22T11:31:15.719Z,12.59
2018-12-22T11:33:43.226Z,12.49
2018-12-22T11:36:10.800Z,12.44
2018-12-22T11:38:38.391Z,12.45
2018-12-22T11:41:05.895Z,12.55
2018-12-22T11:43:33.475Z,12.39
2018-12-22T11:46:00.983Z,12.41
2018-12-22T11:48:28.859Z,12.42
2018-12-22T11:50:56.371Z,12.45
2018-12-22T11:53:23.888Z,12.48
2018-12-22T11:55:51.420Z,12.49
2018-12-22T11:58:18.923Z,12.50
2018-12-22T12:00:46.688Z,12.46
2018-12-22T12:03:14.198Z,12.54
2018-12-22T12:05:41.701Z,12.60
2018-12-22T12:08:09.254Z,12.69
2018-12-22T12:10:36.783Z,12.84
2018-12-22T12:13:04.376Z,12.92
2018-12-22T12:15:35.791Z,12.78
2018-12-22T12:18:17.515Z,12.72
2018-12-22T12:20:45.027Z,12.62
2018-12-22T12:23:12.600Z,12.58
2018-12-22T12:25:40.319Z,12.60
2018-12-22T12:28:07.855Z,12.64
2018-12-22T12:30:35.488Z,12.58
2018-12-22T12:33:03.026Z,12.66
2018-12-22T12:35:30.699Z,12.62
2018-12-22T12:37:58.229Z,12.72
2018-12-22T12:40:25.773Z,12.70
2018-12-22T12:42:53.300Z,12.67
2018-12-22T12:45:20.844Z,12.78
2018-12-22T12:47:48.624Z,12.73
2018-12-22T12:50:19.856Z,12.68
2018-12-22T12:52:47.360Z,12.71
2018-12-22T12:55:15.788Z,12.78
2018-12-22T12:57:43.291Z,12.49
2018-12-22T13:00:19.091Z,12.63
2018-12-22T13:02:46.598Z,12.52
2018-12-22T13:05:14.099Z,12.46
2018-12-22T13:07:41.653Z,12.55
2018-12-22T13:10:11.891Z,12.43
2018-12-22T13:15:48.453Z,12.51
2018-12-22T13:18:16.484Z,12.36
2018-12-22T13:20:43.983Z,12.38
2018-12-22T13:23:11.480Z,12.34
2018-12-22T13:25:39.240Z,12.20
2018-12-22T13:28:06.738Z,12.13
2018-12-22T13:30:34.263Z,11.97
2018-12-22T13:33:01.759Z,12.18
2018-12-22T13:35:29.286Z,11.85
2018-12-22T13:37:56.788Z,11.81
2018-12-22T13:40:24.387Z,11.77
2018-12-22T13:42:51.888Z,12.12
2018-12-22T13:45:19.389Z,11.88
2018-12-22T13:47:47.013Z,11.75
2018-12-22T13:50:14.586Z,11.75
2018-12-22T13:52:42.319Z,11.68
2018-12-22T13:55:10.326Z,11.65
2018-12-22T13:57:43.647Z,11.65
2018-12-22T14:00:19.320Z,11.54
2018-12-22T14:02:46.848Z,11.43
2018-12-22T14:05:24.795Z,11.34
2018-12-22T14:07:52.346Z,11.36
2018-12-22T14:10:20.648Z,11.31
2018-12-22T14:12:48.163Z,11.39
2018-12-22T14:15:21.795Z,11.48
2018-12-22T14:18:01.900Z,11.37
2018-12-22T14:20:30.728Z,11.36
2018-12-22T14:22:58.347Z,11.32
2018-12-22T14:25:26.043Z,11.33
2018-12-22T14:27:53.549Z,11.32
2018-12-22T14:30:21.061Z,11.31
2018-12-22T14:32:48.587Z,11.17
2018-12-22T14:35:19.988Z,11.14
2018-12-22T14:37:47.538Z,11.16
2018-12-22T14:40:15.044Z,11.15
2018-12-22T14:42:42.571Z,11.10
2018-12-22T14:45:12.991Z,11.02
2018-12-22T14:47:41.147Z,11.14
2018-12-22T14:50:11.279Z,10.98
2018-12-22T14:52:38.797Z,10.88
2018-12-22T14:55:10.455Z,10.87
2018-12-22T14:57:44.901Z,10.79
2018-12-22T15:00:15.591Z,10.85
2018-12-22T15:02:43.215Z,10.76
2018-12-22T15:05:10.716Z,10.83
2018-12-22T15:07:38.251Z,10.88
2018-12-22T15:10:09.440Z,10.77
2018-12-22T15:12:37.066Z,10.68
2018-12-22T15:15:08.927Z,10.70
2018-12-22T15:17:36.755Z,10.60
2018-12-22T15:20:08.287Z,10.73
2018-12-22T15:22:35.816Z,10.59
2018-12-22T15:25:03.743Z,10.58
2018-12-22T15:27:31.243Z,10.53
2018-12-22T15:29:58.772Z,10.59
2018-12-22T15:32:26.274Z,10.52
2018-12-22T15:34:53.799Z,10.55
2018-12-22T15:37:21.301Z,10.55
2018-12-22T15:39:49.234Z,10.56
2018-12-22T15:42:16.741Z,10.41
2018-12-22T15:44:44.270Z,10.60
2018-12-22T15:47:11.827Z,10.68
2018-12-22T15:49:39.323Z,10.41
2018-12-22T15:52:06.987Z,10.45
2018-12-22T15:54:34.488Z,10.44
2018-12-22T15:57:02.003Z,10.48
2018-12-22T15:59:29.652Z,10.45
2018-12-22T16:01:57.152Z,10.36
2018-12-22T16:04:24.691Z,10.41
2018-12-22T16:06:52.276Z,10.43
2018-12-22T16:09:19.831Z,10.44
2018-12-22T16:11:47.364Z,10.33
2018-12-22T16:14:14.891Z,10.37
2018-12-22T16:16:42.455Z,10.33
2018-12-22T16:19:09.991Z,10.47
2018-12-22T16:21:37.491Z,10.32
2018-12-22T16:24:05.048Z,10.24
2018-12-22T16:26:33.270Z,10.31
2018-12-22T16:29:01.132Z,10.17
2018-12-22T16:31:28.640Z,10.18
2018-12-22T16:33:56.164Z,10.35
2018-12-22T16:36:23.737Z,10.21
2018-12-22T16:38:51.238Z,10.20
2018-12-22T16:41:18.849Z,10.07
2018-12-22T16:43:46.430Z,10.12
2018-12-22T16:46:13.939Z,9.98
2018-12-22T16:48:41.663Z,9.97
2018-12-22T16:51:09.164Z,9.96
2018-12-22T16:53:36.695Z,9.93
2018-12-22T16:56:04.196Z,9.99
2018-12-22T16:58:31.694Z,9.89
2018-12-22T17:01:18.804Z,9.92
2018-12-22T17:03:46.312Z,9.90
2018-12-22T17:06:14.447Z,9.94
2018-12-22T17:08:41.943Z,9.92
2018-12-22T17:11:09.471Z,9.96
2018-12-22T17:13:36.992Z,9.96
2018-12-22T17:16:04.589Z,9.90
2018-12-22T17:18:32.259Z,9.89
2018-12-22T17:21:04.484Z,9.92
2018-12-22T17:23:42.728Z,10.02
2018-12-22T17:26:10.601Z,9.92
2018-12-22T17:28:38.118Z,9.90
2018-12-22T17:31:05.674Z,9.89
2018-12-22T17:33:33.167Z,9.93
2018-12-22T17:36:00.700Z,10.01
2018-12-22T17:38:28.307Z,9.98
2018-12-22T17:40:56.063Z,9.93
2018-12-22T17:43:23.599Z,9.91
2018-12-22T17:45:51.092Z,9.78
2018-12-22T17:48:18.695Z,9.84
2018-12-22T17:50:46.207Z,9.88
2018-12-22T17:53:13.751Z,9.84
2018-12-22T17:55:41.263Z,9.73
2018-12-22T17:58:08.859Z,9.71
2018-12-22T18:00:36.437Z,9.64
2018-12-22T18:03:06.159Z,9.71
2018-12-22T18:05:33.687Z,9.67
2018-12-22T18:08:01.197Z,9.67
2018-12-22T18:10:28.936Z,9.66
2018-12-22T18:12:56.477Z,9.78
2018-12-22T18:15:25.387Z,9.65
2018-12-22T18:17:53.025Z,9.62
2018-12-22T18:20:20.525Z,9.59
2018-12-22T18:22:48.199Z,9.65
2018-12-22T18:25:19.000Z,9.73
2018-12-22T18:27:48.648Z,9.74
2018-12-22T18:30:16.191Z,9.99
2018-12-22T18:32:44.891Z,9.74
2018-12-22T18:35:12.527Z,9.69
2018-12-22T18:37:40.028Z,9.77
2018-12-22T18:40:23.667Z,9.77
2018-12-22T18:42:51.339Z,9.89
2018-12-22T18:45:18.879Z,9.82
2018-12-22T18:47:46.379Z,9.83
2018-12-22T18:50:21.053Z,9.83
2018-12-22T18:52:48.587Z,9.89
2018-12-22T18:55:16.105Z,9.87
2018-12-22T18:57:46.006Z,9.84
2018-12-22T19:00:19.068Z,9.82
2018-12-22T19:02:46.635Z,9.96
2018-12-22T19:05:14.937Z,9.84
2018-12-22T19:07:42.435Z,9.80
2018-12-22T19:10:30.519Z,9.73
2018-12-22T19:12:58.034Z,9.83
2018-12-22T19:15:25.716Z,9.82
2018-12-22T19:17:53.815Z,9.75
2018-12-22T19:20:28.048Z,9.85
2018-12-22T19:22:55.547Z,9.77
2018-12-22T19:25:23.460Z,9.83
2018-12-22T19:27:51.015Z,9.97
2018-12-22T19:30:18.514Z,9.97
2018-12-22T19:32:46.051Z,9.84
2018-12-22T19:35:13.605Z,9.97
2018-12-22T19:37:41.199Z,9.91
2018-12-22T19:40:08.888Z,9.92
2018-12-22T19:42:36.455Z,9.91
2018-12-22T19:45:05.772Z,9.85
2018-12-22T19:47:33.288Z,9.86
2018-12-22T19:50:00.832Z,9.87
2018-12-22T19:52:28.337Z,10.06
2018-12-22T19:54:55.860Z,9.93
2018-12-22T19:57:23.983Z,10.01
2018-12-22T19:59:51.507Z,9.82
2018-12-22T20:02:19.006Z,9.75
2018-12-22T20:04:46.620Z,9.76
2018-12-22T20:07:14.115Z,9.72
2018-12-22T20:09:41.619Z,9.76
2018-12-22T20:12:09.148Z,9.76
2018-12-22T20:14:36.739Z,9.75
2018-12-22T20:17:04.291Z,9.77
2018-12-22T20:19:31.788Z,9.79
2018-12-22T20:21:59.283Z,9.76
2018-12-22T20:24:26.822Z,9.75
2018-12-22T20:26:54.328Z,9.77
2018-12-22T20:29:21.851Z,9.75
2018-12-22T20:31:49.344Z,9.76
2018-12-22T20:34:16.855Z,9.75
2018-12-22T20:36:44.381Z,9.73
2018-12-22T20:39:11.879Z,9.73
2018-12-22T20:41:39.408Z,9.78
2018-12-22T20:44:06.904Z,9.74
2018-12-22T20:46:34.504Z,9.64
2018-12-22T20:49:02.011Z,9.59
2018-12-22T20:51:29.535Z,9.60
2018-12-22T20:53:57.060Z,9.53
2018-12-22T20:56:24.572Z,9.53
2018-12-22T20:58:52.197Z,9.55
2018-12-22T21:01:19.695Z,9.48
2018-12-22T21:03:47.528Z,9.53
2018-12-22T21:06:16.622Z,9.47
2018-12-22T21:08:44.120Z,9.54
2018-12-22T21:11:11.743Z,9.40
2018-12-22T21:13:39.246Z,9.53
2018-12-22T21:16:06.980Z,9.54
2018-12-22T21:18:34.477Z,9.52
2018-12-22T21:21:01.975Z,9.68
2018-12-22T21:23:29.515Z,9.59
2018-12-22T21:25:57.035Z,9.57
2018-12-22T21:28:24.669Z,9.52
2018-12-22T21:30:52.179Z,9.55
2018-12-22T21:33:19.691Z,9.53
2018-12-22T21:35:53.280Z,9.55
2018-12-22T21:38:16.739Z,9.56
2018-12-22T21:40:44.419Z,9.66
2018-12-22T21:43:11.916Z,9.55
2018-12-22T21:45:39.423Z,9.47
2018-12-22T21:48:06.952Z,8.98
2018-12-22T21:50:34.454Z,8.80
2018-12-22T21:53:01.988Z,8.71
2018-12-22T21:55:29.488Z,8.85
2018-12-22T21:57:57.013Z,8.51
2018-12-22T22:00:24.547Z,8.45
2018-12-22T22:02:52.043Z,8.36
2018-12-22T22:05:19.597Z,8.17
2018-12-22T22:07:47.119Z,8.19
2018-12-22T22:10:14.618Z,8.19
2018-12-22T22:12:42.141Z,8.22
2018-12-22T22:15:09.636Z,8.44
2018-12-22T22:17:37.309Z,8.18
2018-12-22T22:20:05.618Z,7.99
2018-12-22T22:22:33.130Z,8.21
2018-12-22T22:25:00.656Z,8.17
2018-12-22T22:27:28.185Z,8.11
2018-12-22T22:29:55.740Z,8.10
2018-12-22T22:32:23.232Z,7.84
2018-12-22T22:34:50.739Z,7.81
2018-12-22T22:37:18.268Z,7.72
2018-12-22T22:39:45.776Z,7.81
2018-12-22T22:42:13.307Z,7.66
2018-12-22T22:44:40.851Z,7.55
2018-12-22T22:47:08.447Z,7.48
2018-12-22T22:49:35.974Z,7.41
2018-12-22T22:52:03.474Z,7.25
2018-12-22T22:54:31.015Z,7.21
2018-12-22T22:56:59.441Z,7.18
2018-12-22T22:59:27.151Z,7.15
2018-12-22T23:01:54.683Z,7.07
2018-12-22T23:04:22.588Z,7.11
2018-12-22T23:06:50.435Z,7.09
2018-12-22T23:09:17.933Z,7.38
2018-12-22T23:11:45.432Z,7.39
2018-12-22T23:14:12.969Z,7.43
2018-12-22T23:16:40.670Z,7.49
2018-12-22T23:19:08.319Z,7.54
2018-12-22T23:21:35.904Z,7.47
2018-12-22T23:24:03.659Z,7.47
2018-12-22T23:26:31.157Z,7.45
2018-12-22T23:28:58.656Z,7.60
2018-12-22T23:31:26.209Z,7.63
2018-12-22T23:33:53.708Z,7.58
2018-12-22T23:36:21.351Z,7.63
2018-12-22T23:38:48.851Z,7.66
2018-12-22T23:41:16.352Z,7.59
2018-12-22T23:43:43.877Z,7.68
2018-12-22T23:46:11.392Z,7.60
2018-12-22T23:48:38.933Z,7.67
2018-12-22T23:51:06.542Z,7.72
2018-12-22T23:53:34.177Z,7.74
2018-12-22T23:56:01.699Z,7.94
2018-12-22T23:58:29.203Z,8.16
